This is the latest recevied weather packets stored in our database for station/object VA3BOO. If no packets are shown the sender has not sent any weather packets the latest 10 day(s).
| Time | Temp. | Humidity | Pressure | Rain* | Wind** | Luminosity | Snow |
|---|---|---|---|---|---|---|---|
| 1777298705 | 15.56° C | 50% | 1025.1 hPa | 0 mm | - | 524 W/m² | - |
| 1777298405 | 15° C | 48% | 1025 hPa | 0 mm | - | 509 W/m² | - |
| 1777298105 | 14.44° C | 51% | 1025.1 hPa | 0 mm | - | 495 W/m² | - |
| 1777297804 | 15° C | 49% | 1025.1 hPa | 0 mm | - | 481 W/m² | - |
| 1777297505 | 15° C | 49% | 1025 hPa | 0 mm | - | 465 W/m² | - |
| 1777297204 | 15° C | 48% | 1025.1 hPa | 0 mm | - | 453 W/m² | - |
| 1777296904 | 14.44° C | 50% | 1025.2 hPa | 0 mm | - | 438 W/m² | - |
| 1777296604 | 14.44° C | 51% | 1025.2 hPa | 0 mm | - | 422 W/m² | - |
| 1777296305 | 14.44° C | 51% | 1025 hPa | 0 mm | - | 408 W/m² | - |
| 1777296005 | 13.33° C | 53% | 1025.1 hPa | 0 mm | - | 394 W/m² | - |
| 1777295704 | 12.78° C | 55% | 1024.8 hPa | 0 mm | - | 380 W/m² | - |
| 1777295404 | 12.78° C | 54% | 1025 hPa | 0 mm | - | 355 W/m² | - |
| 1777295104 | 13.33° C | 54% | 1024.8 hPa | 0 mm | - | 54 W/m² | - |
| 1777294804 | 12.78° C | 57% | 1025.1 hPa | 0 mm | - | 47 W/m² | - |
| 1777294505 | 13.33° C | 58% | 1024.8 hPa | 0 mm | - | 46 W/m² | - |
| 1777294204 | 13.33° C | 57% | 1024.9 hPa | 0 mm | - | 46 W/m² | - |
| 1777293904 | 13.33° C | 57% | 1024.8 hPa | 0 mm | - | 46 W/m² | - |
| 1777293604 | 13.33° C | 58% | 1024.9 hPa | 0 mm | - | 130 W/m² | - |
| 1777293305 | 12.78° C | 59% | 1024.9 hPa | 0 mm | - | 62 W/m² | - |
| 1777293004 | 12.78° C | 61% | 1024.8 hPa | 0 mm | - | 43 W/m² | - |
| 1777292704 | 13.33° C | 58% | 1024.8 hPa | 0 mm | - | 41 W/m² | - |
| 1777292404 | 12.78° C | 62% | 1025 hPa | 0 mm | - | 38 W/m² | - |
| 1777292104 | 12.22° C | 61% | 1024.9 hPa | 0 mm | - | 37 W/m² | - |
| 1777291804 | 11.67° C | 67% | 1024.9 hPa | 0 mm | - | 36 W/m² | - |
| 1777291504 | 11.67° C | 68% | 1024.9 hPa | 0 mm | - | 35 W/m² | - |
* Rain latest hour (hover to see other rain measurements)
** Current wind speed in m/s (hover to see current wind gust speed)